createdAt,value
2019-01-27T00:00:52.073Z,97.60
2019-01-27T00:03:29.856Z,97.70
2019-01-27T00:06:08.382Z,97.80
2019-01-27T00:08:43.380Z,97.70
2019-01-27T00:11:17.290Z,97.70
2019-01-27T00:13:59.604Z,97.70
2019-01-27T00:16:35.906Z,97.60
2019-01-27T00:19:12.942Z,97.60
2019-01-27T00:21:48.827Z,97.60
2019-01-27T00:24:30.191Z,97.70
2019-01-27T00:27:06.492Z,97.80
2019-01-27T00:29:40.368Z,97.80
2019-01-27T00:32:14.077Z,97.90
2019-01-27T00:34:49.536Z,98.30
2019-01-27T00:37:23.592Z,98.70
2019-01-27T00:39:57.428Z,98.90
2019-01-27T00:42:32.495Z,99.00
2019-01-27T00:45:07.843Z,98.80
2019-01-27T00:47:41.661Z,98.60
2019-01-27T00:50:17.420Z,98.20
2019-01-27T00:52:51.064Z,98.00
2019-01-27T00:55:31.839Z,97.80
2019-01-27T00:58:05.177Z,97.70
2019-01-27T01:00:41.348Z,97.60
2019-01-27T01:03:17.645Z,97.80
2019-01-27T01:05:51.683Z,97.80
2019-01-27T01:08:27.370Z,97.70
2019-01-27T01:11:01.204Z,97.60
2019-01-27T01:13:37.773Z,97.60
2019-01-27T01:16:11.355Z,97.60
2019-01-27T01:18:45.045Z,97.60
2019-01-27T01:21:19.134Z,97.60
2019-01-27T01:23:55.223Z,97.70
2019-01-27T01:26:29.312Z,97.90
2019-01-27T01:29:03.503Z,97.90
2019-01-27T01:31:43.792Z,97.90
2019-01-27T01:34:17.099Z,97.80
2019-01-27T01:36:51.483Z,97.80
2019-01-27T01:39:24.882Z,97.80
2019-01-27T01:41:59.118Z,97.80
2019-01-27T01:44:34.599Z,97.70
2019-01-27T01:47:11.835Z,97.70
2019-01-27T01:49:47.167Z,97.80
2019-01-27T01:52:21.444Z,97.70
2019-01-27T01:54:55.188Z,97.70
2019-01-27T01:57:29.307Z,97.80
2019-01-27T02:00:02.805Z,97.80
2019-01-27T02:02:37.331Z,97.40
2019-01-27T02:05:11.921Z,97.50
2019-01-27T02:07:46.017Z,97.60
2019-01-27T02:10:23.913Z,97.70
2019-01-27T02:12:57.674Z,97.80
2019-01-27T02:16:05.318Z,97.90
2019-01-27T02:18:40.356Z,98.10
2019-01-27T02:21:16.270Z,97.70
2019-01-27T02:23:50.381Z,97.70
2019-01-27T02:26:24.017Z,97.80
2019-01-27T02:28:57.837Z,98.00
2019-01-27T02:31:31.416Z,98.30
2019-01-27T02:34:05.765Z,98.50
2019-01-27T02:36:40.556Z,98.30
2019-01-27T02:39:14.468Z,98.30
2019-01-27T02:41:48.204Z,98.20
2019-01-27T02:44:22.168Z,98.70
2019-01-27T02:46:57.097Z,98.70
2019-01-27T02:49:30.789Z,98.40
2019-01-27T02:52:04.527Z,98.40
2019-01-27T02:54:38.660Z,98.60
2019-01-27T02:57:11.873Z,98.50
2019-01-27T02:59:45.587Z,98.30
2019-01-27T03:02:21.485Z,98.00
2019-01-27T03:04:58.142Z,97.90
2019-01-27T03:07:39.082Z,98.00
2019-01-27T03:10:15.264Z,98.10
2019-01-27T03:12:51.506Z,98.00
2019-01-27T03:15:27.579Z,98.00
2019-01-27T03:18:01.544Z,98.00
2019-01-27T03:20:54.701Z,98.00
2019-01-27T03:23:28.275Z,97.90
2019-01-27T03:26:10.784Z,97.90
2019-01-27T03:28:44.595Z,97.80
2019-01-27T03:31:18.791Z,97.70
2019-01-27T03:33:56.212Z,97.80
2019-01-27T03:36:30.234Z,97.90
2019-01-27T03:39:05.246Z,98.00
2019-01-27T03:41:39.559Z,98.10
2019-01-27T03:44:15.543Z,98.00
2019-01-27T03:46:49.622Z,98.20
2019-01-27T03:49:24.690Z,98.20
2019-01-27T03:51:59.705Z,98.20
2019-01-27T03:54:33.428Z,98.40
2019-01-27T03:57:09.224Z,98.60
2019-01-27T03:59:42.453Z,98.70
2019-01-27T04:02:16.504Z,98.60
2019-01-27T04:04:50.111Z,98.70
2019-01-27T04:07:24.197Z,99.00
2019-01-27T04:09:57.953Z,99.20
2019-01-27T04:12:31.977Z,99.10
2019-01-27T04:15:06.122Z,99.20
2019-01-27T04:17:40.200Z,99.00
2019-01-27T04:20:16.813Z,99.10
2019-01-27T04:22:50.775Z,99.30
2019-01-27T04:25:24.235Z,99.20
2019-01-27T04:27:57.986Z,99.30
2019-01-27T04:30:36.311Z,99.70
2019-01-27T04:33:10.265Z,99.90
2019-01-27T04:35:44.095Z,99.90
2019-01-27T04:38:18.113Z,99.90
2019-01-27T04:40:52.212Z,99.90
2019-01-27T04:43:26.431Z,99.90
2019-01-27T04:46:00.117Z,99.90
2019-01-27T04:48:35.672Z,99.90
2019-01-27T04:51:12.780Z,99.90
2019-01-27T04:53:47.370Z,99.90
2019-01-27T04:56:21.060Z,99.80
2019-01-27T04:58:55.100Z,99.80
2019-01-27T05:01:28.702Z,99.60
2019-01-27T05:04:21.144Z,99.60
2019-01-27T05:06:56.077Z,99.70
2019-01-27T05:09:30.074Z,99.50
2019-01-27T05:12:03.970Z,99.60
2019-01-27T05:14:38.033Z,99.60
2019-01-27T05:17:11.799Z,99.80
2019-01-27T05:19:47.884Z,99.90
2019-01-27T05:22:24.595Z,99.90
2019-01-27T05:24:58.425Z,99.90
2019-01-27T05:27:32.366Z,99.90
2019-01-27T05:30:07.464Z,99.90
2019-01-27T05:32:41.284Z,99.90
2019-01-27T05:35:14.832Z,99.90
2019-01-27T05:37:48.680Z,99.90
2019-01-27T05:40:22.985Z,99.90
2019-01-27T05:42:57.901Z,99.90
2019-01-27T05:45:31.948Z,99.90
2019-01-27T05:48:05.642Z,99.90
2019-01-27T05:50:39.661Z,99.90
2019-01-27T05:53:15.134Z,99.90
2019-01-27T05:55:51.021Z,99.90
2019-01-27T05:58:24.725Z,99.60
2019-01-27T06:01:05.513Z,99.40
2019-01-27T06:03:39.013Z,99.40
2019-01-27T06:06:13.184Z,99.60
2019-01-27T06:08:46.864Z,99.50
2019-01-27T06:11:23.174Z,99.60
2019-01-27T06:13:56.957Z,99.60
2019-01-27T06:16:30.827Z,99.50
2019-01-27T06:19:04.657Z,99.20
2019-01-27T06:21:38.739Z,99.30
2019-01-27T06:24:14.708Z,99.10
2019-01-27T06:26:48.794Z,99.00
2019-01-27T06:29:24.421Z,99.00
2019-01-27T06:31:58.629Z,99.00
2019-01-27T06:34:34.779Z,99.10
2019-01-27T06:37:08.816Z,99.10
2019-01-27T06:39:45.076Z,98.90
2019-01-27T06:42:18.997Z,98.80
2019-01-27T06:44:52.476Z,98.80
2019-01-27T06:47:27.798Z,98.80
2019-01-27T06:50:01.265Z,98.70
2019-01-27T06:52:36.591Z,98.80
2019-01-27T06:55:13.230Z,98.80
2019-01-27T06:57:47.331Z,98.80
2019-01-27T07:00:41.463Z,98.80
2019-01-27T07:03:43.066Z,98.80
2019-01-27T07:06:40.614Z,98.80
2019-01-27T07:09:40.608Z,98.90
2019-01-27T07:12:26.180Z,98.90
2019-01-27T07:15:26.938Z,98.70
2019-01-27T07:18:24.199Z,98.60
2019-01-27T07:21:16.443Z,98.30
2019-01-27T07:24:12.233Z,98.10
2019-01-27T07:27:19.465Z,97.90
2019-01-27T07:30:03.800Z,97.60
2019-01-27T07:32:58.450Z,97.50
2019-01-27T07:36:02.028Z,97.50
2019-01-27T07:39:01.678Z,97.40
2019-01-27T07:41:50.593Z,97.40
2019-01-27T07:44:44.779Z,97.40
2019-01-27T07:47:42.915Z,97.00
2019-01-27T07:50:36.166Z,96.90
2019-01-27T07:53:39.369Z,96.90
2019-01-27T07:56:29.188Z,96.50
2019-01-27T07:59:23.810Z,96.40
2019-01-27T08:02:27.232Z,96.30
2019-01-27T08:05:21.547Z,96.20
2019-01-27T08:08:22.654Z,96.10
2019-01-27T08:11:14.580Z,95.90
2019-01-27T08:14:03.157Z,95.80
2019-01-27T08:17:13.152Z,95.70
2019-01-27T08:20:15.154Z,95.60
2019-01-27T08:23:07.811Z,95.80
2019-01-27T08:26:00.740Z,95.50
2019-01-27T08:28:49.109Z,95.50
2019-01-27T08:31:49.864Z,95.20
2019-01-27T08:34:49.418Z,95.20
2019-01-27T08:37:57.385Z,95.10
2019-01-27T08:41:03.767Z,95.10
2019-01-27T08:44:02.633Z,95.00
2019-01-27T08:46:48.589Z,94.60
2019-01-27T08:49:23.513Z,94.60
2019-01-27T08:51:57.249Z,94.50
2019-01-27T08:54:32.148Z,94.00
2019-01-27T08:57:07.288Z,93.70
2019-01-27T08:59:42.287Z,93.70
2019-01-27T09:02:47.821Z,93.60
2019-01-27T09:05:35.526Z,93.40
2019-01-27T09:08:32.982Z,93.20
2019-01-27T09:11:27.030Z,93.10
2019-01-27T09:14:20.459Z,93.30
2019-01-27T09:17:24.075Z,93.40
2019-01-27T09:20:32.156Z,93.30
2019-01-27T09:23:25.411Z,92.90
2019-01-27T09:26:26.699Z,92.60
2019-01-27T09:29:26.735Z,92.30
2019-01-27T09:32:24.833Z,92.40
2019-01-27T09:35:33.159Z,92.40
2019-01-27T09:38:25.605Z,92.30
2019-01-27T09:41:39.472Z,91.90
2019-01-27T09:44:35.786Z,91.70
2019-01-27T09:47:37.681Z,91.00
2019-01-27T09:50:39.639Z,90.80
2019-01-27T09:53:24.893Z,91.00
2019-01-27T09:56:15.355Z,91.00
2019-01-27T09:59:21.570Z,90.90
2019-01-27T10:02:18.368Z,90.70
2019-01-27T10:05:02.256Z,90.50
2019-01-27T10:08:08.855Z,90.10
2019-01-27T10:10:57.043Z,89.60
2019-01-27T10:13:54.305Z,90.00
2019-01-27T10:16:48.280Z,90.10
2019-01-27T10:19:42.997Z,89.30
2019-01-27T10:22:36.573Z,89.20
2019-01-27T10:25:32.705Z,88.80
2019-01-27T10:28:28.965Z,89.10
2019-01-27T10:31:16.553Z,89.30
2019-01-27T10:34:04.457Z,89.10
2019-01-27T10:37:04.080Z,89.20
2019-01-27T10:40:30.466Z,88.70
2019-01-27T10:43:35.044Z,88.70
2019-01-27T10:46:37.803Z,89.20
2019-01-27T10:49:31.647Z,89.70
2019-01-27T10:52:19.956Z,89.50
2019-01-27T10:55:20.921Z,88.10
2019-01-27T10:58:17.805Z,87.60
2019-01-27T11:01:06.123Z,87.90
2019-01-27T11:03:58.665Z,87.80
2019-01-27T11:06:47.027Z,88.20
2019-01-27T11:09:50.678Z,86.70
2019-01-27T11:12:37.123Z,87.00
2019-01-27T11:15:22.075Z,86.30
2019-01-27T11:18:16.284Z,87.40
2019-01-27T11:21:20.196Z,86.90
2019-01-27T11:24:12.099Z,85.50
2019-01-27T11:27:03.557Z,84.80
2019-01-27T11:29:52.925Z,85.60
2019-01-27T11:32:44.660Z,86.00
2019-01-27T11:35:34.658Z,86.20
2019-01-27T11:38:28.173Z,86.20
2019-01-27T11:41:30.111Z,84.80
2019-01-27T11:44:25.575Z,83.50
2019-01-27T11:47:22.344Z,83.40
2019-01-27T11:50:27.849Z,83.50
2019-01-27T11:53:13.305Z,83.10
2019-01-27T11:55:47.928Z,81.90
2019-01-27T11:58:22.444Z,82.50
2019-01-27T12:01:00.331Z,81.60
2019-01-27T12:03:37.246Z,80.60
2019-01-27T12:06:15.637Z,79.80
2019-01-27T12:08:55.091Z,78.80
2019-01-27T12:11:33.372Z,79.30
2019-01-27T12:14:07.831Z,80.30
2019-01-27T12:16:43.817Z,81.20
2019-01-27T12:19:24.259Z,81.70
2019-01-27T12:21:59.049Z,80.90
2019-01-27T12:24:33.145Z,80.60
2019-01-27T12:27:07.646Z,78.90
2019-01-27T12:29:42.717Z,80.70
2019-01-27T12:32:17.198Z,80.50
2019-01-27T12:34:52.326Z,79.90
2019-01-27T12:37:27.855Z,80.30
2019-01-27T12:40:04.821Z,80.40
2019-01-27T12:42:40.128Z,80.70
2019-01-27T12:45:19.763Z,79.80
2019-01-27T12:47:54.807Z,79.20
2019-01-27T12:50:30.688Z,78.90
2019-01-27T12:53:12.522Z,78.50
2019-01-27T12:55:46.687Z,76.70
2019-01-27T12:58:22.923Z,76.30
2019-01-27T13:01:08.518Z,75.40
2019-01-27T13:03:46.813Z,76.30
2019-01-27T13:06:23.118Z,75.10
2019-01-27T13:08:57.553Z,74.80
2019-01-27T13:11:31.772Z,75.00
2019-01-27T13:14:05.906Z,76.60
2019-01-27T13:16:41.136Z,76.20
2019-01-27T13:19:15.687Z,75.30
2019-01-27T13:21:49.785Z,75.10
2019-01-27T13:24:24.103Z,74.90
2019-01-27T13:26:58.021Z,75.70
2019-01-27T13:29:33.062Z,74.50
2019-01-27T13:32:11.225Z,74.80
2019-01-27T13:34:45.898Z,75.20
2019-01-27T13:37:22.470Z,75.60
2019-01-27T13:39:56.901Z,75.10
2019-01-27T13:42:34.294Z,74.70
2019-01-27T13:45:10.625Z,75.00
2019-01-27T13:47:58.917Z,74.50
2019-01-27T13:50:38.994Z,75.40
2019-01-27T13:53:14.039Z,75.20
2019-01-27T13:55:48.838Z,75.10
2019-01-27T13:58:28.020Z,74.90
2019-01-27T14:01:03.729Z,73.70
2019-01-27T14:03:39.453Z,73.50
2019-01-27T14:06:16.326Z,73.90
2019-01-27T14:08:49.022Z,74.00
2019-01-27T14:11:23.184Z,74.70
2019-01-27T14:14:01.951Z,75.20
2019-01-27T14:16:37.956Z,75.60
2019-01-27T14:19:12.775Z,76.10
2019-01-27T14:21:47.068Z,75.40
2019-01-27T14:24:24.875Z,75.50
2019-01-27T14:26:59.688Z,74.50
2019-01-27T14:29:34.099Z,74.60
2019-01-27T14:32:10.270Z,74.40
2019-01-27T14:34:44.565Z,75.40
2019-01-27T14:37:19.688Z,75.20
2019-01-27T14:39:55.311Z,75.20
2019-01-27T14:42:29.360Z,76.00
2019-01-27T14:45:03.824Z,76.10
2019-01-27T14:47:39.117Z,76.60
2019-01-27T14:50:17.731Z,77.20
2019-01-27T14:52:52.873Z,78.20
2019-01-27T14:55:32.776Z,79.80
2019-01-27T14:58:10.596Z,80.80
2019-01-27T15:00:54.246Z,81.40
2019-01-27T15:03:29.416Z,82.10
2019-01-27T15:06:03.674Z,83.20
2019-01-27T15:08:39.227Z,83.50
2019-01-27T15:11:14.212Z,83.90
2019-01-27T15:13:49.095Z,84.40
2019-01-27T15:16:24.098Z,84.60
2019-01-27T15:18:58.603Z,85.20
2019-01-27T15:21:35.687Z,86.00
2019-01-27T15:24:11.851Z,85.40
2019-01-27T15:26:46.057Z,85.20
2019-01-27T15:29:21.651Z,86.00
2019-01-27T15:31:55.847Z,86.30
2019-01-27T15:34:32.210Z,87.00
2019-01-27T15:37:06.817Z,87.20
2019-01-27T15:39:40.950Z,87.40
2019-01-27T15:42:16.840Z,88.00
2019-01-27T15:44:51.424Z,88.30
2019-01-27T15:47:28.486Z,89.20
2019-01-27T15:50:03.896Z,89.80
2019-01-27T15:52:40.469Z,89.80
2019-01-27T15:55:16.000Z,89.60
2019-01-27T15:57:50.263Z,89.60
2019-01-27T16:00:27.519Z,89.80
2019-01-27T16:03:01.802Z,90.00
2019-01-27T16:05:36.524Z,90.20
2019-01-27T16:08:11.803Z,90.60
2019-01-27T16:10:49.810Z,90.90
2019-01-27T16:13:24.530Z,91.20
2019-01-27T16:16:00.470Z,91.30
2019-01-27T16:18:36.018Z,91.50
2019-01-27T16:21:11.279Z,91.70
2019-01-27T16:23:52.788Z,92.00
2019-01-27T16:26:33.419Z,92.10
2019-01-27T16:29:08.073Z,92.30
2019-01-27T16:31:51.609Z,92.70
2019-01-27T16:34:42.911Z,93.00
2019-01-27T16:37:18.004Z,93.30
2019-01-27T16:39:51.993Z,93.60
2019-01-27T16:42:26.723Z,93.70
2019-01-27T16:45:00.824Z,93.70
2019-01-27T16:47:35.854Z,94.00
2019-01-27T16:50:14.975Z,94.00
2019-01-27T16:52:50.020Z,94.30
2019-01-27T16:55:28.029Z,94.50
2019-01-27T16:58:02.441Z,94.60
2019-01-27T17:00:40.137Z,94.70
2019-01-27T17:03:15.131Z,94.80
2019-01-27T17:05:49.371Z,94.90
2019-01-27T17:08:26.728Z,95.40
2019-01-27T17:11:01.932Z,95.40
2019-01-27T17:13:36.919Z,95.60
2019-01-27T17:16:16.761Z,95.70
2019-01-27T17:18:53.700Z,95.80
2019-01-27T17:21:28.512Z,95.60
2019-01-27T17:24:03.084Z,95.50
2019-01-27T17:26:52.648Z,95.50
2019-01-27T17:29:29.807Z,95.50
2019-01-27T17:32:05.738Z,95.70
2019-01-27T17:34:40.866Z,95.90
2019-01-27T17:37:15.452Z,96.00
2019-01-27T17:39:55.727Z,96.00
2019-01-27T17:42:36.130Z,95.90
2019-01-27T17:45:12.966Z,96.00
2019-01-27T17:47:54.028Z,95.80
2019-01-27T17:50:29.551Z,95.90
2019-01-27T17:53:03.767Z,95.60
2019-01-27T17:55:47.247Z,95.70
2019-01-27T17:58:35.253Z,95.90
2019-01-27T18:01:23.253Z,96.00
2019-01-27T18:04:22.813Z,95.90
2019-01-27T18:07:23.243Z,95.70
2019-01-27T18:10:08.532Z,95.60
2019-01-27T18:13:09.473Z,95.60
2019-01-27T18:15:43.755Z,95.80
2019-01-27T18:18:18.033Z,95.90
2019-01-27T18:20:53.952Z,96.10
2019-01-27T18:23:40.119Z,96.30
2019-01-27T18:26:17.409Z,96.40
2019-01-27T18:28:54.048Z,96.40
2019-01-27T18:31:28.377Z,96.50
2019-01-27T18:34:02.753Z,96.40
2019-01-27T18:36:37.001Z,96.20
2019-01-27T18:39:13.640Z,96.10
2019-01-27T18:41:47.954Z,95.30
2019-01-27T18:44:22.338Z,95.50
2019-01-27T18:46:57.420Z,95.60
2019-01-27T18:49:31.863Z,95.60
2019-01-27T18:52:06.520Z,95.70
2019-01-27T18:55:14.246Z,95.80
2019-01-27T18:58:05.045Z,95.70
2019-01-27T19:00:58.601Z,95.80
2019-01-27T19:03:55.951Z,95.90
2019-01-27T19:06:46.544Z,95.90
2019-01-27T19:09:38.853Z,95.90
2019-01-27T19:12:44.029Z,95.70
2019-01-27T19:16:01.337Z,95.90
2019-01-27T19:18:56.400Z,96.10
2019-01-27T19:21:51.166Z,96.40
2019-01-27T19:24:45.703Z,96.40
2019-01-27T19:27:55.730Z,96.60
2019-01-27T19:30:36.810Z,96.50
2019-01-27T19:33:30.295Z,96.50
2019-01-27T19:36:23.686Z,96.50
2019-01-27T19:39:13.022Z,96.60
2019-01-27T19:42:11.450Z,96.50
2019-01-27T19:45:11.853Z,96.40
2019-01-27T19:48:11.168Z,96.50
2019-01-27T19:51:09.660Z,96.60
2019-01-27T19:54:16.179Z,96.80
2019-01-27T19:57:19.582Z,96.80
2019-01-27T20:00:20.739Z,96.70
2019-01-27T20:03:14.406Z,96.70
2019-01-27T20:06:00.069Z,96.70
2019-01-27T20:08:53.104Z,96.70
2019-01-27T20:11:40.730Z,96.80
2019-01-27T20:14:36.695Z,96.80
2019-01-27T20:17:37.226Z,96.90
2019-01-27T20:20:34.496Z,96.80
2019-01-27T20:23:27.296Z,96.80
2019-01-27T20:26:19.901Z,97.10
2019-01-27T20:29:16.180Z,97.00
2019-01-27T20:32:16.770Z,97.00
2019-01-27T20:35:17.690Z,97.00
2019-01-27T20:38:11.639Z,97.10
2019-01-27T20:41:24.754Z,96.70
2019-01-27T20:44:17.410Z,96.80
2019-01-27T20:47:12.438Z,96.70
2019-01-27T20:50:19.484Z,96.80
2019-01-27T20:53:13.657Z,96.70
2019-01-27T20:56:05.562Z,96.60
2019-01-27T20:59:06.325Z,96.70
2019-01-27T21:02:02.721Z,96.70
2019-01-27T21:04:56.552Z,96.60
2019-01-27T21:07:49.098Z,96.50
2019-01-27T21:10:48.996Z,96.50
2019-01-27T21:13:57.102Z,96.50
2019-01-27T21:16:59.253Z,96.70
2019-01-27T21:19:46.162Z,96.80
2019-01-27T21:22:20.767Z,96.80
2019-01-27T21:24:54.400Z,97.10
2019-01-27T21:27:28.583Z,96.90
2019-01-27T21:30:02.353Z,97.00
2019-01-27T21:32:37.972Z,97.00
2019-01-27T21:35:13.035Z,97.10
2019-01-27T21:37:47.418Z,97.20
2019-01-27T21:40:22.172Z,97.30
2019-01-27T21:42:57.579Z,97.40
2019-01-27T21:45:31.270Z,97.40
2019-01-27T21:48:05.898Z,97.50
2019-01-27T21:50:46.318Z,97.40
2019-01-27T21:53:20.626Z,97.30
2019-01-27T21:55:57.801Z,97.20
2019-01-27T21:58:34.326Z,97.20
2019-01-27T22:01:08.156Z,97.10
2019-01-27T22:03:43.604Z,97.20
2019-01-27T22:06:18.522Z,97.10
2019-01-27T22:08:53.332Z,97.00
2019-01-27T22:11:27.071Z,97.10
2019-01-27T22:14:01.490Z,97.20
2019-01-27T22:16:36.477Z,97.30
2019-01-27T22:19:10.770Z,97.30
2019-01-27T22:21:44.672Z,97.20
2019-01-27T22:24:20.122Z,97.30
2019-01-27T22:26:54.239Z,97.40
2019-01-27T22:29:30.270Z,97.90
2019-01-27T22:32:08.597Z,97.90
2019-01-27T22:34:42.400Z,97.90
2019-01-27T22:37:16.621Z,98.00
2019-01-27T22:39:50.510Z,98.10
2019-01-27T22:42:24.752Z,98.20
2019-01-27T22:45:01.748Z,98.10
2019-01-27T22:47:35.731Z,98.30
2019-01-27T22:50:14.778Z,98.30
2019-01-27T22:52:49.476Z,98.10
2019-01-27T22:55:27.734Z,98.00
2019-01-27T22:58:05.157Z,97.80
2019-01-27T23:01:07.996Z,97.90
2019-01-27T23:03:46.502Z,97.80
2019-01-27T23:06:20.526Z,97.80
2019-01-27T23:08:55.257Z,97.70
2019-01-27T23:11:31.198Z,97.70
2019-01-27T23:14:05.676Z,97.60
2019-01-27T23:16:42.275Z,97.50
2019-01-27T23:19:16.806Z,97.60
2019-01-27T23:21:51.247Z,97.50
2019-01-27T23:24:25.294Z,97.50
2019-01-27T23:27:00.124Z,97.50
2019-01-27T23:29:33.902Z,97.40
2019-01-27T23:32:08.957Z,97.50
2019-01-27T23:34:43.273Z,97.60
2019-01-27T23:37:18.476Z,97.60
2019-01-27T23:39:54.680Z,97.70
2019-01-27T23:42:28.757Z,97.70
2019-01-27T23:45:08.217Z,97.70
2019-01-27T23:47:47.321Z,97.70
2019-01-27T23:50:21.094Z,97.80
2019-01-27T23:52:55.200Z,97.80
2019-01-27T23:55:28.798Z,97.80
2019-01-27T23:58:03.033Z,97.70
